Time;durP1;ratioP1;P1;durP2;ratioP2;P2;SDS_P1;SDS_P2;PMS_P1;PMS_P2;Temp;Humidity;BMP_temperature;BMP_pressure;BME280_temperature;BME280_humidity;BME280_pressure;Samples;Min_cycle;Max_cycle;Signal;HPM_P1;HPM_P2
2022/01/28 00:05:45;;;;;;;;;;;;;;;3.27;83.44;99098.40;130475;1267;108974;-81
2022/01/28 00:08:50;;;;;;;7.40;3.50;;;;;;;3.24;83.26;99094.48;130349;1269;108665;-80
2022/01/28 00:11:56;;;;;;;8.10;3.90;;;;;;;3.17;83.33;99090.85;130511;1267;107286;-81
2022/01/28 00:15:06;;;;;;;6.60;3.40;;;;;;;3.09;83.34;99094.13;130565;1267;108863;-79
2022/01/28 00:38:34;;;;;;;45.90;22.00;;;;;;;3.12;83.58;99066.60;130487;1268;108153;-85
2022/01/28 00:41:40;;;;;;;94.50;40.60;;;;;;;3.07;83.37;99082.86;130383;1268;108828;-83
2022/01/28 00:44:46;;;;;;;122.50;49.40;;;;;;;3.06;83.80;99082.81;130619;1268;108707;-80
2022/01/28 00:47:51;;;;;;;52.20;19.90;;;;;;;2.98;83.96;99047.52;130274;1271;108742;-80
2022/01/28 00:50:57;;;;;;;44.60;17.40;;;;;;;2.90;84.07;99060.98;130242;1268;108764;-79
2022/01/28 00:54:03;;;;;;;89.90;36.10;;;;;;;2.82;84.25;99057.65;130496;1268;107504;-79
2022/01/28 00:57:09;;;;;;;286.90;121.80;;;;;;;2.77;84.40;99049.16;130453;1267;110191;-78
2022/01/28 01:00:15;;;;;;;102.80;44.30;;;;;;;2.76;84.09;99051.01;130403;1268;107580;-80
2022/01/28 01:03:21;;;;;;;59.50;28.30;;;;;;;2.75;84.03;99047.20;130389;1268;107079;-80
2022/01/28 01:06:27;;;;;;;17.20;8.30;;;;;;;2.72;83.98;99040.42;130607;1268;109017;-81
2022/01/28 01:09:32;;;;;;;35.30;20.60;;;;;;;2.68;84.23;99039.88;130517;1267;108658;-80
2022/01/28 01:12:43;;;;;;;61.70;32.30;;;;;;;2.64;84.21;99027.80;130290;1268;108960;-77
2022/01/28 01:15:53;;;;;;;137.30;64.50;;;;;;;2.60;84.24;99021.32;130287;1268;108853;-79
2022/01/28 01:19:15;;;;;;;41.40;22.40;;;;;;;2.59;84.52;99020.33;130423;1268;108681;-78
2022/01/28 01:22:20;;;;;;;20.30;10.70;;;;;;;2.63;84.74;99017.52;130551;1268;108741;-82
2022/01/28 01:25:28;;;;;;;40.50;22.10;;;;;;;2.70;84.70;99013.96;130542;1268;108787;-83
2022/01/28 01:28:37;;;;;;;30.30;15.40;;;;;;;2.75;84.69;99017.14;130524;1268;107440;-80
2022/01/28 01:31:43;;;;;;;12.40;6.60;;;;;;;2.80;84.72;99007.96;130299;1270;108686;-77
2022/01/28 01:34:49;;;;;;;25.20;14.50;;;;;;;2.82;84.44;99011.31;130469;1268;108794;-83
2022/01/28 01:37:54;;;;;;;6.70;3.60;;;;;;;2.84;84.49;99010.45;130494;1268;107479;-81
2022/01/28 01:41:03;;;;;;;8.10;4.30;;;;;;;2.86;84.41;99007.06;130448;1267;108851;-81
2022/01/28 01:44:19;;;;;;;21.30;10.70;;;;;;;2.88;84.26;99007.64;130442;1268;108787;-80
2022/01/28 01:54:11;;;;;;;88.00;39.80;;;;;;;2.95;83.62;98996.82;130351;1268;108822;-82
2022/01/28 01:57:16;;;;;;;29.30;15.00;;;;;;;2.96;83.77;99000.42;130404;1267;106927;-80
2022/01/28 02:00:22;;;;;;;11.40;4.80;;;;;;;3.02;83.88;98994.64;130449;1267;108700;-81
2022/01/28 02:03:28;;;;;;;13.50;9.00;;;;;;;3.09;83.80;98984.34;130514;1267;108732;-80
2022/01/28 02:06:34;;;;;;;15.50;9.80;;;;;;;3.14;83.68;98974.04;130341;1268;109105;-81
2022/01/28 02:09:41;;;;;;;24.20;15.80;;;;;;;3.17;83.65;98970.61;130488;1268;107696;-81
2022/01/28 02:12:53;;;;;;;38.60;25.40;;;;;;;3.17;83.69;98962.01;130492;1267;108618;-81
2022/01/28 02:16:01;;;;;;;47.30;31.70;;;;;;;3.14;83.95;98956.45;130472;1267;108739;-85
2022/01/28 02:19:07;;;;;;;15.50;9.30;;;;;;;3.15;83.97;98952.18;130492;1267;108802;-85
2022/01/28 02:22:13;;;;;;;19.40;13.00;;;;;;;3.17;83.92;98946.52;130543;1267;108882;-84
2022/01/28 02:25:27;;;;;;;7.40;3.30;;;;;;;3.25;84.03;98937.02;130527;1267;108994;-82
2022/01/28 02:28:36;;;;;;;10.60;6.20;;;;;;;3.30;84.03;98942.72;130508;1267;108678;-81
2022/01/28 02:31:43;;;;;;;9.20;5.90;;;;;;;3.37;83.95;98940.92;130563;1267;108815;-83
2022/01/28 02:34:49;;;;;;;7.40;2.80;;;;;;;3.37;83.99;98935.44;130475;1267;108960;-82
2022/01/28 02:37:54;;;;;;;8.00;3.80;;;;;;;3.36;84.05;98938.85;130321;1269;108656;-83
2022/01/28 02:41:02;;;;;;;11.10;5.20;;;;;;;3.37;84.38;98934.07;130533;1267;106846;-80
2022/01/28 02:44:16;;;;;;;10.70;6.80;;;;;;;3.37;84.44;98938.23;130540;1267;108860;-82
2022/01/28 02:47:32;;;;;;;9.80;5.50;;;;;;;3.34;84.33;98933.55;130473;1270;108740;-81
2022/01/28 02:50:43;;;;;;;13.10;6.20;;;;;;;3.35;84.34;98927.19;130406;1267;108976;-80
2022/01/28 02:53:53;;;;;;;8.90;4.00;;;;;;;3.30;84.53;98925.30;130293;1270;108690;-80
2022/01/28 02:57:02;;;;;;;9.10;3.00;;;;;;;3.29;84.51;98918.77;130320;1267;108738;-80
2022/01/28 03:00:10;;;;;;;7.20;3.00;;;;;;;3.31;84.55;98914.70;130305;1267;108712;-81
2022/01/28 03:03:18;;;;;;;8.10;3.20;;;;;;;3.35;84.70;98913.31;130407;1267;108743;-80
2022/01/28 03:06:24;;;;;;;7.80;3.20;;;;;;;3.35;84.43;98906.13;130535;1268;108854;-81
2022/01/28 03:09:47;;;;;;;7.20;3.00;;;;;;;3.31;84.51;98910.80;130416;1269;108766;-81
2022/01/28 03:13:13;;;;;;;6.30;2.70;;;;;;;3.29;84.54;98908.05;130529;1267;108813;-81
2022/01/28 03:16:20;;;;;;;8.10;3.80;;;;;;;3.29;84.60;98903.80;130406;1267;108590;-81
2022/01/28 03:19:40;;;;;;;5.70;2.40;;;;;;;3.31;84.60;98896.96;130559;1268;109052;-80
2022/01/28 03:22:46;;;;;;;6.70;2.90;;;;;;;3.32;84.64;98898.80;130390;1268;108747;-78
2022/01/28 03:25:51;;;;;;;10.50;3.50;;;;;;;3.34;84.61;98899.48;130385;1268;108874;-78
2022/01/28 03:28:57;;;;;;;7.60;3.40;;;;;;;3.34;84.74;98894.74;130246;1269;108733;-81
2022/01/28 03:32:02;;;;;;;9.80;3.70;;;;;;;3.32;84.51;98894.60;130434;1267;106986;-79
2022/01/28 03:35:10;;;;;;;6.30;2.30;;;;;;;3.31;84.88;98898.89;130518;1268;108823;-80
2022/01/28 03:38:16;;;;;;;4.40;2.40;;;;;;;3.27;84.96;98892.58;130416;1268;108985;-80
2022/01/28 03:41:23;;;;;;;5.60;2.90;;;;;;;3.26;85.06;98900.38;130514;1267;108976;-80
2022/01/28 03:44:28;;;;;;;5.40;2.10;;;;;;;3.26;85.10;98893.73;130443;1267;108835;-81
2022/01/28 03:47:34;;;;;;;6.40;2.70;;;;;;;3.24;84.91;98903.27;130443;1267;108597;-83
2022/01/28 03:50:40;;;;;;;4.90;2.50;;;;;;;3.20;85.25;98904.66;130489;1268;108657;-82
2022/01/28 03:53:46;;;;;;;4.90;1.70;;;;;;;3.15;85.62;98903.30;130363;1268;107476;-81
2022/01/28 03:56:51;;;;;;;4.30;1.60;;;;;;;3.12;85.66;98909.23;130444;1267;108986;-80
2022/01/28 03:59:57;;;;;;;4.60;1.70;;;;;;;3.10;85.89;98910.77;130471;1267;108806;-81
2022/01/28 04:03:08;;;;;;;2.10;1.40;;;;;;;3.10;85.93;98917.83;130482;1268;108728;-83
2022/01/28 04:12:59;;;;;;;3.70;1.60;;;;;;;3.03;86.30;98929.87;130308;1268;108858;-84
2022/01/28 04:16:27;;;;;;;3.20;1.80;;;;;;;3.00;86.45;98927.86;130385;1267;109012;-80
2022/01/28 04:19:32;;;;;;;3.60;1.40;;;;;;;2.98;86.53;98934.38;130375;1268;108670;-80
2022/01/28 04:22:37;;;;;;;4.50;1.60;;;;;;;2.91;86.61;98933.54;130421;1268;108547;-80
2022/01/28 04:25:43;;;;;;;3.20;1.70;;;;;;;2.92;86.77;98933.80;130441;1268;108757;-82
2022/01/28 04:28:48;;;;;;;3.80;1.90;;;;;;;2.99;86.76;98936.21;130447;1268;108845;-82
2022/01/28 04:31:54;;;;;;;4.00;1.60;;;;;;;3.00;86.67;98936.33;130462;1268;108688;-84
2022/01/28 04:35:00;;;;;;;3.60;1.60;;;;;;;3.00;86.74;98936.10;130475;1267;110001;-82
2022/01/28 04:38:18;;;;;;;2.40;1.30;;;;;;;2.95;86.96;98943.77;130428;1271;108696;-84
2022/01/28 04:41:31;;;;;;;4.10;1.70;;;;;;;2.91;87.20;98944.25;130470;1268;108668;-84
2022/01/28 04:44:46;;;;;;;5.10;2.50;;;;;;;2.91;87.55;98948.89;130500;1268;109667;-84
2022/01/28 04:48:04;;;;;;;9.80;5.00;;;;;;;2.86;87.82;98941.55;130490;1268;108673;-85
2022/01/28 04:51:18;;;;;;;16.90;8.00;;;;;;;2.85;87.91;98955.33;130494;1267;108709;-82
2022/01/28 04:54:44;;;;;;;9.10;4.70;;;;;;;2.91;87.85;98950.08;130509;1268;108660;-83
2022/01/28 04:58:03;;;;;;;11.70;5.70;;;;;;;2.97;87.77;98955.73;130453;1268;108682;-83
2022/01/28 05:01:50;;;;;;;25.40;11.50;;;;;;;2.99;87.76;98951.80;130461;1268;109121;-83
2022/01/28 05:05:13;;;;;;;4.60;2.10;;;;;;;3.03;87.46;98966.62;130517;1267;108639;-80
2022/01/28 05:08:46;;;;;;;17.30;9.20;;;;;;;3.05;87.51;98966.96;130395;1267;108707;-81
2022/01/28 05:15:48;;;;;;;11.70;6.10;;;;;;;3.05;87.79;98970.09;130037;1271;107875;-80
2022/01/28 05:26:02;;;;;;;4.60;2.30;;;;;;;3.07;87.97;98990.35;130288;1268;108852;-79
2022/01/28 05:29:08;;;;;;;11.10;6.70;;;;;;;3.04;87.98;98985.15;130593;1268;108721;-81
2022/01/28 05:32:14;;;;;;;4.80;1.60;;;;;;;3.03;88.04;98983.34;130553;1268;108841;-79
2022/01/28 05:35:19;;;;;;;5.00;2.30;;;;;;;3.02;88.05;98988.84;130337;1268;108824;-81
2022/01/28 05:38:24;;;;;;;4.80;2.90;;;;;;;2.99;88.19;98988.25;130445;1268;108854;-81
2022/01/28 05:41:30;;;;;;;6.50;2.00;;;;;;;3.01;88.47;99000.90;130451;1268;108827;-81
2022/01/28 05:44:36;;;;;;;4.30;2.00;;;;;;;2.97;88.69;98996.46;130445;1268;107141;-79
2022/01/28 05:47:42;;;;;;;5.60;2.30;;;;;;;2.98;88.43;99002.03;130393;1268;108923;-78
2022/01/28 05:50:47;;;;;;;8.30;3.40;;;;;;;3.01;88.68;99010.34;130654;1268;107446;-78
2022/01/28 05:53:53;;;;;;;42.60;17.40;;;;;;;3.04;88.55;99010.42;130278;1268;108746;-79
2022/01/28 05:57:00;;;;;;;95.00;44.00;;;;;;;3.03;88.55;99012.77;130315;1268;106694;-79
2022/01/28 06:00:08;;;;;;;27.90;12.50;;;;;;;3.05;88.55;99016.64;130300;1268;108709;-82
2022/01/28 06:03:22;;;;;;;14.50;5.90;;;;;;;3.07;88.57;99022.27;131798;1268;108945;-77
2022/01/28 06:06:28;;;;;;;28.00;14.60;;;;;;;3.10;88.76;99026.25;131723;1268;107335;-75
2022/01/28 06:09:33;;;;;;;14.50;5.90;;;;;;;3.10;88.69;99027.48;130442;1268;106786;-70
2022/01/28 06:12:42;;;;;;;52.90;24.90;;;;;;;3.09;88.72;99034.41;130349;1268;108944;-75
2022/01/28 06:15:47;;;;;;;30.50;14.80;;;;;;;3.09;88.83;99038.98;130366;1268;108634;-75
2022/01/28 06:18:53;;;;;;;15.10;6.10;;;;;;;3.09;89.11;99038.10;130287;1268;109598;-76
2022/01/28 06:21:58;;;;;;;9.20;3.60;;;;;;;3.03;89.16;99040.71;130274;1268;109040;-77
2022/01/28 06:25:04;;;;;;;37.90;17.20;;;;;;;3.03;89.01;99044.07;130329;1268;108857;-81
2022/01/28 06:28:10;;;;;;;27.70;11.50;;;;;;;3.03;89.11;99053.56;130524;1268;108747;-76
2022/01/28 06:31:15;;;;;;;16.60;7.10;;;;;;;3.00;89.22;99054.16;130556;1268;108700;-79
2022/01/28 06:34:21;;;;;;;10.60;4.10;;;;;;;3.02;89.28;99052.93;130479;1268;108724;-74
2022/01/28 06:37:26;;;;;;;7.60;2.90;;;;;;;3.04;89.34;99066.66;130376;1268;108824;-76
2022/01/28 06:40:32;;;;;;;6.60;2.40;;;;;;;2.97;89.66;99078.12;130418;1267;108720;-75
2022/01/28 06:43:37;;;;;;;8.90;2.80;;;;;;;2.93;89.69;99079.35;130262;1268;108650;-75
2022/01/28 06:46:42;;;;;;;5.80;2.00;;;;;;;2.97;89.64;99083.11;130431;1268;108690;-79
2022/01/28 06:49:48;;;;;;;6.70;2.30;;;;;;;2.91;90.00;99093.05;130516;1268;108862;-76
2022/01/28 06:52:53;;;;;;;9.60;3.30;;;;;;;2.84;90.52;99102.42;130305;1267;108608;-76
2022/01/28 06:55:59;;;;;;;6.90;2.30;;;;;;;2.81;90.72;99118.38;130052;1269;108673;-77
2022/01/28 06:59:04;;;;;;;6.90;3.20;;;;;;;2.77;90.90;99117.08;130254;1268;108646;-77
2022/01/28 07:02:10;;;;;;;7.40;2.50;;;;;;;2.78;90.75;99131.45;130217;1268;108974;-77
2022/01/28 07:05:15;;;;;;;7.00;2.30;;;;;;;2.72;91.60;99128.79;131297;1268;108734;-76
2022/01/28 07:08:23;;;;;;;7.60;2.30;;;;;;;2.68;91.27;99136.64;130902;1268;108024;-75
2022/01/28 07:11:28;;;;;;;6.00;2.90;;;;;;;2.69;91.13;99150.13;130429;1268;107669;-75
2022/01/28 07:14:34;;;;;;;6.40;2.00;;;;;;;2.74;90.99;99154.78;130691;1268;108747;-73
2022/01/28 07:17:39;;;;;;;6.10;2.30;;;;;;;2.77;91.31;99155.73;130588;1267;108698;-75
2022/01/28 07:20:44;;;;;;;4.20;1.70;;;;;;;2.78;91.25;99168.46;130363;1268;108833;-73
2022/01/28 07:23:50;;;;;;;9.70;4.30;;;;;;;2.76;91.10;99169.84;130298;1268;109096;-74
2022/01/28 07:26:55;;;;;;;10.00;3.90;;;;;;;2.73;91.00;99175.35;130828;1268;108834;-76
2022/01/28 07:30:01;;;;;;;55.10;24.20;;;;;;;2.74;90.91;99179.73;130433;1268;107018;-75
2022/01/28 07:33:08;;;;;;;17.90;7.50;;;;;;;2.75;91.03;99182.95;130347;1268;109163;-76
2022/01/28 07:36:14;;;;;;;7.50;2.70;;;;;;;2.75;91.30;99191.75;130326;1268;108805;-79
2022/01/28 07:39:19;;;;;;;84.20;39.80;;;;;;;2.79;91.36;99193.52;130280;1269;107117;-80
2022/01/28 07:42:26;;;;;;;32.60;15.10;;;;;;;2.85;91.29;99210.60;130344;1268;109042;-80
2022/01/28 07:45:31;;;;;;;7.10;2.90;;;;;;;2.83;91.63;99203.91;130519;1268;108861;-81
2022/01/28 07:48:36;;;;;;;8.30;4.40;;;;;;;2.83;91.54;99213.75;130668;1268;108698;-80
2022/01/28 07:51:42;;;;;;;7.20;2.60;;;;;;;2.84;91.73;99231.19;130289;1268;108888;-78
2022/01/28 07:54:49;;;;;;;38.80;14.30;;;;;;;2.85;91.76;99237.95;130324;1268;108986;-80
2022/01/28 07:57:55;;;;;;;9.80;5.30;;;;;;;2.85;91.73;99251.50;130172;1268;245029;-82
2022/01/28 08:01:00;;;;;;;12.70;6.90;;;;;;;2.80;92.20;99261.06;130644;1268;108997;-84
2022/01/28 08:04:06;;;;;;;4.50;2.40;;;;;;;2.80;92.38;99274.72;130652;1268;108637;-83
2022/01/28 08:07:11;;;;;;;3.80;2.10;;;;;;;2.78;92.34;99284.05;130533;1268;108658;-83
2022/01/28 08:10:17;;;;;;;6.20;2.80;;;;;;;2.78;92.00;99297.91;130626;1268;108665;-80
2022/01/28 08:13:22;;;;;;;5.40;2.60;;;;;;;2.83;91.92;99291.55;130492;1268;108719;-79
2022/01/28 08:16:30;;;;;;;6.70;2.70;;;;;;;2.86;91.74;99302.35;130279;1268;108862;-77
2022/01/28 08:19:36;;;;;;;6.40;3.70;;;;;;;2.85;91.91;99314.54;130398;1268;108697;-78
2022/01/28 08:22:50;;;;;;;8.30;5.20;;;;;;;2.90;91.59;99311.16;130354;1268;108863;-79
2022/01/28 08:25:56;;;;;;;6.00;2.70;;;;;;;2.93;91.75;99314.54;130417;1268;107813;-80
2022/01/28 08:29:01;;;;;;;6.30;3.10;;;;;;;2.92;91.43;99328.48;130379;1268;108884;-76
2022/01/28 08:32:08;;;;;;;3.50;2.20;;;;;;;2.90;91.26;99340.80;130360;1268;108860;-76
2022/01/28 08:35:14;;;;;;;6.90;3.50;;;;;;;2.88;91.19;99344.84;130367;1268;108745;-80
2022/01/28 08:38:27;;;;;;;2.50;1.50;;;;;;;2.88;91.29;99352.93;130397;1268;109005;-79
2022/01/28 08:41:36;;;;;;;4.00;2.10;;;;;;;2.87;91.17;99356.39;130521;1268;108771;-80
2022/01/28 08:44:41;;;;;;;9.60;4.40;;;;;;;2.88;91.04;99369.96;130422;1267;108760;-78
2022/01/28 08:47:47;;;;;;;6.50;3.80;;;;;;;2.91;90.58;99385.67;130317;1267;108941;-77
2022/01/28 08:50:52;;;;;;;4.30;2.40;;;;;;;2.89;90.43;99385.34;130394;1268;108217;-76
2022/01/28 08:53:58;;;;;;;5.30;2.90;;;;;;;2.90;90.57;99396.52;130327;1268;108757;-76
2022/01/28 08:57:03;;;;;;;9.20;5.60;;;;;;;2.92;89.81;99411.82;130375;1268;108696;-77
2022/01/28 09:00:11;;;;;;;5.10;2.30;;;;;;;2.95;89.87;99418.76;131391;1268;108756;-82
2022/01/28 09:03:19;;;;;;;9.30;3.70;;;;;;;2.97;89.48;99429.50;130673;1267;108801;-85
2022/01/28 09:06:24;;;;;;;10.60;5.70;;;;;;;3.01;89.53;99434.81;130603;1268;108738;-83
2022/01/28 09:09:30;;;;;;;11.80;6.30;;;;;;;3.06;89.68;99440.34;130548;1267;107655;-82
2022/01/28 09:12:39;;;;;;;8.70;4.00;;;;;;;3.08;89.04;99455.82;130582;1267;109008;-81
2022/01/28 09:15:46;;;;;;;4.60;3.00;;;;;;;3.09;89.07;99472.27;130479;1268;108866;-78
2022/01/28 09:18:52;;;;;;;15.20;5.90;;;;;;;3.07;89.08;99475.98;130412;1268;108723;-83
2022/01/28 09:21:57;;;;;;;5.40;2.70;;;;;;;3.07;89.33;99482.94;130843;1267;108733;-82
2022/01/28 09:25:03;;;;;;;7.00;3.60;;;;;;;3.07;89.20;99489.80;130640;1268;108770;-83
2022/01/28 09:28:09;;;;;;;9.30;4.70;;;;;;;3.03;88.87;99502.65;131193;1268;106813;-82
2022/01/28 09:31:15;;;;;;;9.90;5.20;;;;;;;3.02;88.56;99510.42;130891;1268;108750;-87
2022/01/28 09:34:20;;;;;;;7.90;3.00;;;;;;;3.04;87.67;99514.35;130512;1268;107994;-75
2022/01/28 09:37:26;;;;;;;9.90;4.90;;;;;;;3.05;87.48;99517.98;130313;1268;108889;-74
2022/01/28 09:40:32;;;;;;;10.60;4.80;;;;;;;3.09;87.93;99530.45;130381;1268;108661;-78
2022/01/28 09:43:37;;;;;;;7.30;2.80;;;;;;;3.12;87.28;99545.84;130337;1267;108840;-72
2022/01/28 09:46:43;;;;;;;8.40;3.80;;;;;;;3.08;86.68;99544.56;130486;1267;106678;-76
2022/01/28 09:49:50;;;;;;;7.80;3.00;;;;;;;3.09;86.82;99546.45;130413;1268;106911;-76
2022/01/28 09:52:56;;;;;;;6.60;3.90;;;;;;;3.08;86.71;99556.65;130448;1268;109019;-75
2022/01/28 09:56:04;;;;;;;5.20;2.10;;;;;;;3.10;86.33;99565.86;130360;1267;108881;-75
2022/01/28 09:59:09;;;;;;;8.10;3.50;;;;;;;3.11;85.32;99564.90;130491;1268;108777;-76
2022/01/28 10:02:16;;;;;;;3.60;1.50;;;;;;;3.14;85.02;99573.46;130420;1268;108723;-74
2022/01/28 10:05:25;;;;;;;4.40;2.10;;;;;;;3.17;84.05;99570.25;130472;1267;108633;-74
2022/01/28 10:08:32;;;;;;;6.10;3.60;;;;;;;3.26;83.70;99575.84;130369;1268;107807;-77
2022/01/28 10:11:39;;;;;;;7.30;3.40;;;;;;;3.41;84.13;99574.48;130370;1268;108710;-72
2022/01/28 10:15:02;;;;;;;11.20;3.60;;;;;;;3.50;83.55;99584.11;130513;1267;108745;-74
2022/01/28 10:18:07;;;;;;;6.10;2.60;;;;;;;3.52;83.32;99585.30;130258;1268;108731;-76
2022/01/28 10:21:26;;;;;;;4.80;2.20;;;;;;;3.49;82.31;99596.69;130378;1267;107752;-78
2022/01/28 10:24:33;;;;;;;9.10;4.50;;;;;;;3.50;82.66;99609.98;130405;1268;108788;-77
2022/01/28 10:27:38;;;;;;;54.90;23.70;;;;;;;3.51;82.68;99601.94;130348;1267;108668;-76
2022/01/28 10:30:45;;;;;;;16.70;6.50;;;;;;;3.52;82.58;99625.98;130344;1268;107703;-74
2022/01/28 10:33:50;;;;;;;6.70;2.80;;;;;;;3.50;83.42;99626.61;130360;1268;108627;-77
2022/01/28 10:37:12;;;;;;;7.10;3.10;;;;;;;3.54;84.35;99625.98;130291;1268;107752;-79
2022/01/28 10:40:17;;;;;;;23.10;11.00;;;;;;;3.53;83.75;99644.70;130420;1268;107564;-76
2022/01/28 10:43:27;;;;;;;7.10;3.50;;;;;;;3.52;83.19;99648.95;130456;1267;110137;-76
2022/01/28 10:46:34;;;;;;;27.50;13.20;;;;;;;3.58;82.97;99647.85;130344;1268;108787;-75
2022/01/28 10:49:40;;;;;;;9.40;4.80;;;;;;;3.61;83.63;99659.89;130369;1268;108671;-78
2022/01/28 10:52:48;;;;;;;7.70;3.90;;;;;;;3.48;84.25;99663.70;130406;1267;109180;-76
2022/01/28 10:55:57;;;;;;;14.80;6.00;;;;;;;3.40;84.95;99677.25;130367;1268;107504;-75
2022/01/28 10:59:05;;;;;;;12.60;5.20;;;;;;;3.32;85.61;99682.93;130396;1267;108786;-75
2022/01/28 11:02:11;;;;;;;7.40;3.60;;;;;;;3.31;86.10;99689.84;130424;1268;108798;-77
2022/01/28 11:05:17;;;;;;;9.00;4.50;;;;;;;3.21;85.72;99699.78;130331;1268;109236;-78
2022/01/28 11:08:24;;;;;;;8.00;3.80;;;;;;;3.22;85.99;99707.67;130340;1268;108725;-79
2022/01/28 11:11:31;;;;;;;7.30;4.10;;;;;;;3.30;85.46;99712.83;130419;1268;108625;-75
2022/01/28 11:14:36;;;;;;;12.20;5.10;;;;;;;3.33;84.89;99716.79;130331;1268;109022;-74
2022/01/28 11:17:41;;;;;;;9.00;4.20;;;;;;;3.30;84.14;99717.05;130347;1268;108724;-74
2022/01/28 11:20:50;;;;;;;10.50;4.10;;;;;;;3.22;83.87;99726.63;130297;1268;108696;-77
2022/01/28 11:24:04;;;;;;;10.10;4.10;;;;;;;3.20;83.88;99735.05;130302;1268;108918;-77
2022/01/28 11:27:18;;;;;;;13.80;6.00;;;;;;;3.22;83.76;99736.27;130316;1268;107712;-77
2022/01/28 11:30:28;;;;;;;11.10;4.30;;;;;;;3.19;83.72;99746.72;130335;1268;108687;-79
2022/01/28 11:33:48;;;;;;;6.40;2.70;;;;;;;3.10;83.20;99758.09;130332;1268;108705;-83
2022/01/28 11:36:55;;;;;;;10.00;4.50;;;;;;;3.10;83.53;99740.36;130359;1268;108996;-77
2022/01/28 11:40:13;;;;;;;9.30;3.60;;;;;;;3.16;83.53;99747.64;130480;1267;108803;-78
2022/01/28 11:43:25;;;;;;;15.00;6.40;;;;;;;3.24;82.94;99759.16;130336;1268;107823;-81
2022/01/28 11:46:38;;;;;;;7.40;3.60;;;;;;;3.34;83.07;99759.45;130303;1268;109089;-77
2022/01/28 11:50:07;;;;;;;7.00;3.70;;;;;;;3.44;82.21;99764.80;130266;1268;109649;-82
2022/01/28 11:53:24;;;;;;;9.60;3.90;;;;;;;3.48;80.98;99770.30;130313;1268;108683;-80
2022/01/28 11:56:31;;;;;;;11.80;5.90;;;;;;;3.47;80.52;99772.31;130272;1270;108709;-82
2022/01/28 11:59:36;;;;;;;14.20;5.70;;;;;;;3.44;80.54;99777.29;130460;1268;107340;-84
2022/01/28 12:02:51;;;;;;;12.20;5.10;;;;;;;3.37;80.44;99787.66;130505;1268;107866;-84
2022/01/28 12:05:57;;;;;;;10.20;4.10;;;;;;;3.32;80.90;99797.04;130534;1268;108701;-75
2022/01/28 12:09:03;;;;;;;8.60;4.00;;;;;;;3.25;81.52;99803.39;130260;1267;108852;-75
2022/01/28 12:12:13;;;;;;;5.80;3.30;;;;;;;3.18;82.95;99822.70;130403;1267;108712;-75
2022/01/28 12:15:19;;;;;;;5.00;2.40;;;;;;;2.99;84.63;99829.21;130302;1267;108642;-73
2022/01/28 12:18:25;;;;;;;6.70;2.80;;;;;;;2.89;85.62;99828.41;130333;1267;108693;-76
2022/01/28 12:21:34;;;;;;;12.60;5.70;;;;;;;2.90;86.06;99833.44;130216;1268;108901;-78
2022/01/28 12:24:40;;;;;;;8.30;4.60;;;;;;;2.91;85.81;99833.02;130371;1268;108794;-77
2022/01/28 12:27:46;;;;;;;4.70;2.60;;;;;;;2.88;85.35;99837.58;130340;1268;109074;-76
2022/01/28 12:30:58;;;;;;;14.40;6.10;;;;;;;2.86;84.32;99841.99;130301;1268;108930;-75
2022/01/28 12:34:05;;;;;;;5.50;3.30;;;;;;;2.87;83.96;99848.08;130294;1268;108892;-75
2022/01/28 12:37:11;;;;;;;15.20;7.40;;;;;;;2.90;83.22;99857.48;130285;1268;107658;-75
2022/01/28 12:40:24;;;;;;;17.00;7.90;;;;;;;2.94;82.77;99855.77;130265;1268;108722;-76
2022/01/28 12:43:30;;;;;;;14.80;5.30;;;;;;;2.96;82.69;99858.11;130312;1268;106932;-75
2022/01/28 12:46:37;;;;;;;26.00;11.40;;;;;;;2.96;81.94;99857.52;130279;1268;108514;-75
2022/01/28 12:49:43;;;;;;;19.80;7.10;;;;;;;3.01;82.04;99864.01;130276;1267;108782;-75
2022/01/28 12:52:49;;;;;;;13.20;4.30;;;;;;;3.04;81.36;99864.69;130276;1268;107543;-76
2022/01/28 12:55:54;;;;;;;9.20;3.50;;;;;;;3.05;81.02;99866.20;130268;1267;109240;-74
2022/01/28 12:59:02;;;;;;;10.10;4.50;;;;;;;3.02;80.67;99879.77;130252;1268;108879;-75
2022/01/28 13:02:09;;;;;;;8.10;3.90;;;;;;;2.99;80.06;99880.21;130291;1270;108742;-75
2022/01/28 13:05:16;;;;;;;7.80;3.30;;;;;;;2.93;80.01;99893.08;130444;1267;108575;-76
2022/01/28 13:08:27;;;;;;;10.90;4.80;;;;;;;2.93;80.69;99895.17;130274;1270;107013;-76
2022/01/28 13:11:33;;;;;;;10.30;4.10;;;;;;;2.94;81.06;99915.00;130277;1268;106875;-78
2022/01/28 13:14:39;;;;;;;4.60;2.60;;;;;;;2.89;81.50;99929.05;130242;1268;108882;-78
2022/01/28 13:17:55;;;;;;;6.20;3.60;;;;;;;2.87;81.98;99939.06;130323;1268;108965;-77
2022/01/28 13:21:01;;;;;;;6.60;3.90;;;;;;;2.88;81.73;99937.73;130350;1268;106749;-76
2022/01/28 13:24:12;;;;;;;13.90;5.30;;;;;;;2.94;81.68;99932.56;130247;1268;108947;-76
2022/01/28 13:27:17;;;;;;;10.40;4.80;;;;;;;2.92;81.60;99937.58;130307;1268;108865;-76
2022/01/28 13:30:23;;;;;;;4.40;2.20;;;;;;;2.92;81.48;99941.83;130475;1268;108740;-74
2022/01/28 13:33:30;;;;;;;6.10;2.60;;;;;;;2.93;80.48;99951.95;130409;1268;109094;-75
2022/01/28 13:36:52;;;;;;;3.90;1.90;;;;;;;2.97;79.38;99951.66;130371;1267;108671;-73
2022/01/28 13:39:57;;;;;;;7.60;3.30;;;;;;;3.03;79.80;99951.43;130391;1268;108725;-75
2022/01/28 13:43:05;;;;;;;4.70;2.20;;;;;;;3.08;79.31;99956.81;130444;1268;108757;-76
2022/01/28 13:46:16;;;;;;;5.50;2.30;;;;;;;3.08;78.89;99966.30;130343;1268;108799;-75
2022/01/28 13:49:23;;;;;;;5.00;2.20;;;;;;;3.10;78.73;99975.84;131030;1268;107740;-78
2022/01/28 13:52:46;;;;;;;4.40;2.20;;;;;;;3.07;78.49;99981.69;130445;1268;108825;-77
2022/01/28 13:55:53;;;;;;;16.70;5.90;;;;;;;3.04;78.06;99979.64;130366;1267;108666;-79
2022/01/28 13:59:00;;;;;;;7.20;3.10;;;;;;;3.12;78.26;99989.59;130390;1268;108798;-80
2022/01/28 14:02:11;;;;;;;9.30;3.20;;;;;;;3.13;77.68;99991.08;130302;1267;108932;-77
2022/01/28 14:05:18;;;;;;;6.00;2.70;;;;;;;3.08;77.60;99996.70;130304;1268;108800;-78
2022/01/28 14:08:45;;;;;;;4.20;2.20;;;;;;;3.07;77.68;100004.55;130525;1265;109664;-78
2022/01/28 14:11:59;;;;;;;4.50;2.50;;;;;;;3.06;77.19;100012.48;130549;1267;108677;-78
2022/01/28 14:15:13;;;;;;;3.80;1.90;;;;;;;3.07;77.48;100017.03;130515;1267;107764;-80
2022/01/28 14:18:18;;;;;;;4.10;1.80;;;;;;;3.06;77.36;100023.41;131067;1267;108803;-79
2022/01/28 14:21:23;;;;;;;4.70;2.00;;;;;;;3.08;77.67;100030.48;130342;1268;108885;-75
2022/01/28 14:24:31;;;;;;;11.10;6.30;;;;;;;3.13;77.80;100027.13;130437;1267;108720;-78
2022/01/28 14:28:00;;;;;;;5.70;3.00;;;;;;;3.13;77.66;100031.47;130375;1267;108641;-80
2022/01/28 14:31:08;;;;;;;8.20;3.60;;;;;;;3.11;77.48;100034.30;130543;1267;108587;-80
2022/01/28 14:34:14;;;;;;;6.40;3.10;;;;;;;3.08;77.16;100044.73;130381;1267;108901;-80
2022/01/28 14:37:21;;;;;;;9.00;4.50;;;;;;;3.08;76.84;100048.92;131199;1268;106806;-77
2022/01/28 14:40:26;;;;;;;5.20;2.70;;;;;;;3.10;76.82;100058.76;130878;1267;107802;-85
2022/01/28 14:43:31;;;;;;;8.50;4.20;;;;;;;3.14;77.33;100063.27;130772;1267;106923;-78
2022/01/28 14:46:37;;;;;;;9.70;4.20;;;;;;;3.14;77.05;100068.88;130623;1267;108516;-80
2022/01/28 14:49:43;;;;;;;12.60;5.30;;;;;;;3.07;75.95;100071.61;130544;1268;109023;-81
2022/01/28 14:52:49;;;;;;;8.60;4.00;;;;;;;3.05;76.00;100079.89;130344;1268;106740;-77
2022/01/28 14:55:54;;;;;;;13.40;5.10;;;;;;;3.04;76.26;100089.79;130386;1267;108896;-81
2022/01/28 14:59:01;;;;;;;15.30;5.80;;;;;;;3.05;75.99;100100.27;131324;1267;107495;-77
2022/01/28 15:02:09;;;;;;;58.90;24.60;;;;;;;3.03;74.88;100119.22;130764;1267;108696;-80
2022/01/28 15:05:15;;;;;;;11.00;4.10;;;;;;;3.02;75.06;100123.14;130716;1267;108522;-78
2022/01/28 15:08:26;;;;;;;11.50;4.40;;;;;;;3.02;74.72;100144.11;130555;1267;108821;-81
2022/01/28 15:11:42;;;;;;;6.20;3.30;;;;;;;2.99;74.43;100152.16;130946;1267;107327;-83
2022/01/28 15:14:48;;;;;;;9.00;3.90;;;;;;;3.00;74.68;100165.99;130708;1267;107289;-80
2022/01/28 15:17:53;;;;;;;5.70;2.50;;;;;;;2.98;73.60;100173.88;130467;1268;107168;-86